sensor_id;sensor_type;location;lat;lon;timestamp;pressure;altitude;pressure_sealevel;temperature;humidity
18821;BME280;9539;59.332;18.034;2023-02-12T00:00:14;102298.25;;;17.60;29.09
18821;BME280;9539;59.332;18.034;2023-02-12T00:02:37;102303.75;;;18.12;28.45
18821;BME280;9539;59.332;18.034;2023-02-12T00:04:59;102298.44;;;18.88;27.31
18821;BME280;9539;59.332;18.034;2023-02-12T00:07:21;102300.56;;;16.68;29.91
18821;BME280;9539;59.332;18.034;2023-02-12T00:09:43;102295.56;;;18.01;28.05
18821;BME280;9539;59.332;18.034;2023-02-12T00:12:06;102294.28;;;19.21;27.39
18821;BME280;9539;59.332;18.034;2023-02-12T00:14:28;102295.13;;;18.59;26.73
18821;BME280;9539;59.332;18.034;2023-02-12T00:16:50;102295.63;;;17.32;28.37
18821;BME280;9539;59.332;18.034;2023-02-12T00:19:13;102284.88;;;19.39;26.22
18821;BME280;9539;59.332;18.034;2023-02-12T00:21:35;102287.59;;;20.45;25.33
18821;BME280;9539;59.332;18.034;2023-02-12T00:23:57;102287.56;;;19.75;25.15
18821;BME280;9539;59.332;18.034;2023-02-12T00:26:20;102277.84;;;20.31;25.28
18821;BME280;9539;59.332;18.034;2023-02-12T00:28:43;102275.84;;;19.76;25.32
18821;BME280;9539;59.332;18.034;2023-02-12T00:31:06;102259.44;;;20.83;24.64
18821;BME280;9539;59.332;18.034;2023-02-12T00:33:28;102264.72;;;19.92;25.11
18821;BME280;9539;59.332;18.034;2023-02-12T00:35:56;102245.50;;;18.51;27.40
18821;BME280;9539;59.332;18.034;2023-02-12T00:38:18;102255.53;;;19.60;26.19
18821;BME280;9539;59.332;18.034;2023-02-12T00:40:40;102263.97;;;18.17;27.76
18821;BME280;9539;59.332;18.034;2023-02-12T00:43:02;102250.59;;;18.55;26.53
18821;BME280;9539;59.332;18.034;2023-02-12T00:45:24;102255.84;;;19.31;26.29
18821;BME280;9539;59.332;18.034;2023-02-12T00:47:46;102246.88;;;19.43;26.22
18821;BME280;9539;59.332;18.034;2023-02-12T00:50:08;102252.16;;;19.32;26.27
18821;BME280;9539;59.332;18.034;2023-02-12T00:52:31;102261.03;;;18.72;26.67
18821;BME280;9539;59.332;18.034;2023-02-12T00:54:53;102256.97;;;19.40;25.73
18821;BME280;9539;59.332;18.034;2023-02-12T00:57:15;102254.31;;;19.03;26.53
18821;BME280;9539;59.332;18.034;2023-02-12T00:59:37;102256.50;;;18.73;27.05
18821;BME280;9539;59.332;18.034;2023-02-12T01:01:59;102266.69;;;18.43;27.12
18821;BME280;9539;59.332;18.034;2023-02-12T01:04:21;102268.50;;;17.77;27.71
18821;BME280;9539;59.332;18.034;2023-02-12T01:06:44;102260.69;;;17.60;27.39
18821;BME280;9539;59.332;18.034;2023-02-12T01:09:07;102271.75;;;18.47;27.15
18821;BME280;9539;59.332;18.034;2023-02-12T01:11:29;102262.34;;;19.16;25.99
18821;BME280;9539;59.332;18.034;2023-02-12T01:13:51;102270.78;;;19.72;25.44
18821;BME280;9539;59.332;18.034;2023-02-12T01:16:15;102272.50;;;19.36;25.39
18821;BME280;9539;59.332;18.034;2023-02-12T01:18:38;102263.81;;;18.46;26.63
18821;BME280;9539;59.332;18.034;2023-02-12T01:21:00;102260.16;;;19.21;26.13
18821;BME280;9539;59.332;18.034;2023-02-12T01:23:22;102257.75;;;18.29;26.55
18821;BME280;9539;59.332;18.034;2023-02-12T01:25:45;102263.50;;;17.98;27.54
18821;BME280;9539;59.332;18.034;2023-02-12T01:28:09;102255.22;;;17.35;28.48
18821;BME280;9539;59.332;18.034;2023-02-12T01:30:31;102256.16;;;18.52;27.06
18821;BME280;9539;59.332;18.034;2023-02-12T01:32:53;102267.97;;;17.58;27.57
18821;BME280;9539;59.332;18.034;2023-02-12T01:35:15;102261.47;;;18.79;26.71
18821;BME280;9539;59.332;18.034;2023-02-12T01:37:37;102266.91;;;18.52;26.75
18821;BME280;9539;59.332;18.034;2023-02-12T01:39:59;102269.84;;;18.62;26.89
18821;BME280;9539;59.332;18.034;2023-02-12T01:42:22;102272.09;;;17.64;27.96
18821;BME280;9539;59.332;18.034;2023-02-12T01:45:33;102265.81;;;19.42;26.33
18821;BME280;9539;59.332;18.034;2023-02-12T01:48:00;102276.72;;;18.53;26.92
18821;BME280;9539;59.332;18.034;2023-02-12T01:50:22;102268.94;;;19.12;26.81
18821;BME280;9539;59.332;18.034;2023-02-12T01:52:47;102278.19;;;18.32;26.91
18821;BME280;9539;59.332;18.034;2023-02-12T01:55:12;102270.03;;;18.46;26.77
18821;BME280;9539;59.332;18.034;2023-02-12T01:57:38;102270.47;;;18.53;26.76
18821;BME280;9539;59.332;18.034;2023-02-12T02:00:03;102270.78;;;18.86;26.65
18821;BME280;9539;59.332;18.034;2023-02-12T02:02:26;102269.06;;;19.34;25.69
18821;BME280;9539;59.332;18.034;2023-02-12T02:04:50;102258.56;;;17.24;27.53
18821;BME280;9539;59.332;18.034;2023-02-12T02:07:14;102261.00;;;17.55;27.60
18821;BME280;9539;59.332;18.034;2023-02-12T02:09:37;102258.94;;;17.32;28.31
18821;BME280;9539;59.332;18.034;2023-02-12T02:11:59;102245.72;;;16.16;29.40
18821;BME280;9539;59.332;18.034;2023-02-12T02:14:41;102248.72;;;18.18;27.22
18821;BME280;9539;59.332;18.034;2023-02-12T02:17:15;102234.53;;;17.23;28.33
18821;BME280;9539;59.332;18.034;2023-02-12T02:19:53;102229.53;;;16.90;28.50
18821;BME280;9539;59.332;18.034;2023-02-12T02:22:30;102236.94;;;16.28;29.02
18821;BME280;9539;59.332;18.034;2023-02-12T02:25:33;102246.13;;;15.80;30.27
18821;BME280;9539;59.332;18.034;2023-02-12T02:28:12;102237.75;;;16.72;29.49
18821;BME280;9539;59.332;18.034;2023-02-12T02:30:42;102228.44;;;17.06;28.88
18821;BME280;9539;59.332;18.034;2023-02-12T02:33:15;102235.56;;;17.34;28.46
18821;BME280;9539;59.332;18.034;2023-02-12T02:35:44;102219.56;;;17.33;28.21
18821;BME280;9539;59.332;18.034;2023-02-12T02:38:19;102224.69;;;15.80;30.05
18821;BME280;9539;59.332;18.034;2023-02-12T02:40:50;102216.72;;;15.94;30.47
18821;BME280;9539;59.332;18.034;2023-02-12T02:43:16;102210.69;;;16.77;28.63
18821;BME280;9539;59.332;18.034;2023-02-12T02:45:45;102217.09;;;17.30;28.30
18821;BME280;9539;59.332;18.034;2023-02-12T02:48:11;102223.97;;;16.50;29.66
18821;BME280;9539;59.332;18.034;2023-02-12T02:50:38;102224.78;;;16.22;29.32
18821;BME280;9539;59.332;18.034;2023-02-12T02:53:04;102220.06;;;17.25;28.51
18821;BME280;9539;59.332;18.034;2023-02-12T02:55:30;102221.25;;;16.22;29.83
18821;BME280;9539;59.332;18.034;2023-02-12T02:57:56;102206.34;;;17.03;28.47
18821;BME280;9539;59.332;18.034;2023-02-12T03:00:22;102226.84;;;15.28;30.49
18821;BME280;9539;59.332;18.034;2023-02-12T03:02:49;102217.25;;;17.00;29.06
18821;BME280;9539;59.332;18.034;2023-02-12T03:05:15;102229.09;;;16.25;29.49
18821;BME280;9539;59.332;18.034;2023-02-12T03:07:41;102220.94;;;16.70;29.56
18821;BME280;9539;59.332;18.034;2023-02-12T03:10:09;102218.09;;;17.41;28.52
18821;BME280;9539;59.332;18.034;2023-02-12T03:12:35;102201.97;;;18.20;27.61
18821;BME280;9539;59.332;18.034;2023-02-12T03:15:02;102208.47;;;17.91;27.53
18821;BME280;9539;59.332;18.034;2023-02-12T03:17:29;102201.03;;;18.34;27.78
18821;BME280;9539;59.332;18.034;2023-02-12T03:19:57;102212.31;;;17.62;28.42
18821;BME280;9539;59.332;18.034;2023-02-12T03:22:25;102206.59;;;17.66;28.00
18821;BME280;9539;59.332;18.034;2023-02-12T03:24:52;102208.09;;;18.22;28.09
18821;BME280;9539;59.332;18.034;2023-02-12T03:27:18;102198.84;;;18.77;27.06
18821;BME280;9539;59.332;18.034;2023-02-12T03:29:41;102194.59;;;16.91;28.96
18821;BME280;9539;59.332;18.034;2023-02-12T03:32:13;102198.88;;;17.62;28.89
18821;BME280;9539;59.332;18.034;2023-02-12T03:34:46;102188.50;;;17.02;28.92
18821;BME280;9539;59.332;18.034;2023-02-12T03:37:14;102188.47;;;17.43;28.67
18821;BME280;9539;59.332;18.034;2023-02-12T03:39:46;102184.22;;;17.92;28.33
18821;BME280;9539;59.332;18.034;2023-02-12T03:42:13;102174.56;;;18.15;28.28
18821;BME280;9539;59.332;18.034;2023-02-12T03:44:47;102175.84;;;18.10;28.58
18821;BME280;9539;59.332;18.034;2023-02-12T03:47:18;102186.38;;;18.38;27.18
18821;BME280;9539;59.332;18.034;2023-02-12T03:49:47;102192.28;;;16.85;29.19
18821;BME280;9539;59.332;18.034;2023-02-12T03:52:13;102187.44;;;18.10;28.50
18821;BME280;9539;59.332;18.034;2023-02-12T03:54:35;102184.66;;;18.37;27.93
18821;BME280;9539;59.332;18.034;2023-02-12T03:57:02;102186.88;;;17.53;28.67
18821;BME280;9539;59.332;18.034;2023-02-12T03:59:27;102173.28;;;18.21;27.91
18821;BME280;9539;59.332;18.034;2023-02-12T04:01:51;102172.19;;;17.85;28.60
18821;BME280;9539;59.332;18.034;2023-02-12T04:04:14;102157.47;;;17.91;28.78
18821;BME280;9539;59.332;18.034;2023-02-12T04:06:37;102152.44;;;18.12;28.63
18821;BME280;9539;59.332;18.034;2023-02-12T04:09:03;102157.69;;;17.22;29.22
18821;BME280;9539;59.332;18.034;2023-02-12T04:11:30;102142.16;;;18.55;28.36
18821;BME280;9539;59.332;18.034;2023-02-12T04:14:14;102153.88;;;18.54;28.00
18821;BME280;9539;59.332;18.034;2023-02-12T04:16:44;102154.19;;;18.74;27.55
18821;BME280;9539;59.332;18.034;2023-02-12T04:19:12;102144.44;;;18.97;27.71
18821;BME280;9539;59.332;18.034;2023-02-12T04:21:43;102153.25;;;20.50;25.65
18821;BME280;9539;59.332;18.034;2023-02-12T04:24:17;102154.72;;;21.31;25.17
18821;BME280;9539;59.332;18.034;2023-02-12T04:26:47;102156.84;;;18.87;27.58
18821;BME280;9539;59.332;18.034;2023-02-12T04:29:16;102144.09;;;19.84;27.21
18821;BME280;9539;59.332;18.034;2023-02-12T04:31:45;102158.00;;;19.20;27.29
18821;BME280;9539;59.332;18.034;2023-02-12T04:34:14;102151.19;;;19.03;27.68
18821;BME280;9539;59.332;18.034;2023-02-12T04:36:44;102149.63;;;18.13;28.80
18821;BME280;9539;59.332;18.034;2023-02-12T04:39:09;102157.13;;;19.55;27.26
18821;BME280;9539;59.332;18.034;2023-02-12T04:41:33;102147.00;;;20.39;26.25
18821;BME280;9539;59.332;18.034;2023-02-12T04:43:55;102145.81;;;19.27;27.19
18821;BME280;9539;59.332;18.034;2023-02-12T04:46:17;102150.28;;;20.75;25.94
18821;BME280;9539;59.332;18.034;2023-02-12T04:48:49;102147.03;;;18.37;28.66
18821;BME280;9539;59.332;18.034;2023-02-12T04:51:12;102154.16;;;18.87;28.10
18821;BME280;9539;59.332;18.034;2023-02-12T04:53:34;102146.72;;;20.75;26.15
18821;BME280;9539;59.332;18.034;2023-02-12T04:55:57;102144.63;;;20.01;26.23
18821;BME280;9539;59.332;18.034;2023-02-12T04:58:21;102149.09;;;20.46;26.07
18821;BME280;9539;59.332;18.034;2023-02-12T05:00:43;102126.19;;;18.90;27.59
18821;BME280;9539;59.332;18.034;2023-02-12T05:03:05;102130.06;;;19.33;27.46
18821;BME280;9539;59.332;18.034;2023-02-12T05:05:27;102116.53;;;19.81;26.37
18821;BME280;9539;59.332;18.034;2023-02-12T05:07:49;102125.78;;;19.07;27.14
18821;BME280;9539;59.332;18.034;2023-02-12T05:10:11;102115.78;;;20.90;25.22
18821;BME280;9539;59.332;18.034;2023-02-12T05:12:33;102120.09;;;19.92;26.52
18821;BME280;9539;59.332;18.034;2023-02-12T05:14:56;102108.38;;;20.49;25.98
18821;BME280;9539;59.332;18.034;2023-02-12T05:17:20;102105.66;;;19.82;26.83
18821;BME280;9539;59.332;18.034;2023-02-12T05:19:43;102099.09;;;20.53;26.39
18821;BME280;9539;59.332;18.034;2023-02-12T05:22:05;102100.78;;;19.52;27.24
18821;BME280;9539;59.332;18.034;2023-02-12T05:24:27;102100.19;;;20.51;26.38
18821;BME280;9539;59.332;18.034;2023-02-12T05:26:49;102100.09;;;19.73;27.40
18821;BME280;9539;59.332;18.034;2023-02-12T05:29:11;102095.97;;;19.80;27.18
18821;BME280;9539;59.332;18.034;2023-02-12T05:31:34;102077.75;;;20.39;26.62
18821;BME280;9539;59.332;18.034;2023-02-12T05:33:56;102068.41;;;20.32;26.53
18821;BME280;9539;59.332;18.034;2023-02-12T05:36:20;102071.41;;;20.40;27.45
18821;BME280;9539;59.332;18.034;2023-02-12T05:38:43;102063.81;;;20.34;27.49
18821;BME280;9539;59.332;18.034;2023-02-12T05:41:07;102063.25;;;20.73;26.78
18821;BME280;9539;59.332;18.034;2023-02-12T05:43:29;102056.00;;;21.06;25.95
18821;BME280;9539;59.332;18.034;2023-02-12T05:45:51;102061.94;;;20.46;26.81
18821;BME280;9539;59.332;18.034;2023-02-12T05:48:15;102049.78;;;20.94;26.60
18821;BME280;9539;59.332;18.034;2023-02-12T05:50:37;102061.69;;;20.49;27.29
18821;BME280;9539;59.332;18.034;2023-02-12T05:52:59;102056.72;;;21.08;26.17
18821;BME280;9539;59.332;18.034;2023-02-12T05:55:21;102042.50;;;19.05;28.06
18821;BME280;9539;59.332;18.034;2023-02-12T05:57:43;102037.69;;;20.12;27.81
18821;BME280;9539;59.332;18.034;2023-02-12T06:00:08;102046.38;;;21.13;26.72
18821;BME280;9539;59.332;18.034;2023-02-12T06:02:32;102044.66;;;19.92;27.37
18821;BME280;9539;59.332;18.034;2023-02-12T06:04:56;102033.53;;;19.86;27.78
18821;BME280;9539;59.332;18.034;2023-02-12T06:07:17;102044.03;;;19.55;28.10
18821;BME280;9539;59.332;18.034;2023-02-12T06:09:39;102053.00;;;20.01;27.52
18821;BME280;9539;59.332;18.034;2023-02-12T06:12:01;102047.38;;;20.15;27.39
18821;BME280;9539;59.332;18.034;2023-02-12T06:14:23;102062.69;;;20.48;27.57
18821;BME280;9539;59.332;18.034;2023-02-12T06:16:48;102063.16;;;19.75;28.05
18821;BME280;9539;59.332;18.034;2023-02-12T06:19:11;102056.16;;;19.61;28.41
18821;BME280;9539;59.332;18.034;2023-02-12T06:21:34;102058.16;;;20.91;27.29
18821;BME280;9539;59.332;18.034;2023-02-12T06:23:56;102048.84;;;18.57;29.50
18821;BME280;9539;59.332;18.034;2023-02-12T06:26:19;102053.78;;;18.50;30.24
18821;BME280;9539;59.332;18.034;2023-02-12T06:28:41;102042.69;;;19.26;29.33
18821;BME280;9539;59.332;18.034;2023-02-12T06:31:04;102047.75;;;19.88;28.61
18821;BME280;9539;59.332;18.034;2023-02-12T06:33:26;102049.78;;;19.73;28.06
18821;BME280;9539;59.332;18.034;2023-02-12T06:35:48;102050.06;;;20.15;28.14
18821;BME280;9539;59.332;18.034;2023-02-12T06:38:11;102035.72;;;21.43;26.86
18821;BME280;9539;59.332;18.034;2023-02-12T06:40:33;102037.47;;;21.33;26.91
18821;BME280;9539;59.332;18.034;2023-02-12T06:42:55;102041.50;;;19.76;28.56
18821;BME280;9539;59.332;18.034;2023-02-12T06:45:17;102042.94;;;19.69;28.58
18821;BME280;9539;59.332;18.034;2023-02-12T06:47:39;102040.50;;;20.44;28.00
18821;BME280;9539;59.332;18.034;2023-02-12T06:50:01;102026.69;;;21.54;26.96
18821;BME280;9539;59.332;18.034;2023-02-12T06:52:23;102037.81;;;20.00;28.67
18821;BME280;9539;59.332;18.034;2023-02-12T06:54:46;102039.44;;;20.79;27.27
18821;BME280;9539;59.332;18.034;2023-02-12T06:57:08;102038.31;;;19.93;28.74
18821;BME280;9539;59.332;18.034;2023-02-12T06:59:30;102038.38;;;19.47;29.01
18821;BME280;9539;59.332;18.034;2023-02-12T07:01:53;102040.72;;;19.96;28.39
18821;BME280;9539;59.332;18.034;2023-02-12T07:04:14;102033.28;;;21.08;27.44
18821;BME280;9539;59.332;18.034;2023-02-12T07:06:36;102033.38;;;20.43;28.38
18821;BME280;9539;59.332;18.034;2023-02-12T07:08:58;102027.38;;;19.73;29.11
18821;BME280;9539;59.332;18.034;2023-02-12T07:11:24;102029.59;;;19.79;29.07
18821;BME280;9539;59.332;18.034;2023-02-12T07:13:46;102019.31;;;19.27;30.07
18821;BME280;9539;59.332;18.034;2023-02-12T07:16:10;102024.28;;;20.66;27.92
18821;BME280;9539;59.332;18.034;2023-02-12T07:18:33;102006.41;;;19.43;29.92
18821;BME280;9539;59.332;18.034;2023-02-12T07:20:55;102015.09;;;20.90;28.21
18821;BME280;9539;59.332;18.034;2023-02-12T07:23:17;102016.00;;;20.36;28.90
18821;BME280;9539;59.332;18.034;2023-02-12T07:25:39;102000.88;;;20.56;28.07
18821;BME280;9539;59.332;18.034;2023-02-12T07:28:03;102008.84;;;20.89;28.29
18821;BME280;9539;59.332;18.034;2023-02-12T07:30:25;102010.31;;;20.93;28.37
18821;BME280;9539;59.332;18.034;2023-02-12T07:32:47;102014.53;;;20.10;29.13
18821;BME280;9539;59.332;18.034;2023-02-12T07:35:09;102005.63;;;20.63;28.35
18821;BME280;9539;59.332;18.034;2023-02-12T07:37:32;102013.94;;;19.27;29.70
18821;BME280;9539;59.332;18.034;2023-02-12T07:39:54;102015.75;;;19.26;30.05
18821;BME280;9539;59.332;18.034;2023-02-12T07:42:16;102024.19;;;20.46;28.76
18821;BME280;9539;59.332;18.034;2023-02-12T07:44:40;102019.19;;;20.19;29.04
18821;BME280;9539;59.332;18.034;2023-02-12T07:47:02;102011.84;;;21.69;27.14
18821;BME280;9539;59.332;18.034;2023-02-12T07:49:25;102015.44;;;21.79;27.04
18821;BME280;9539;59.332;18.034;2023-02-12T07:51:48;102009.50;;;21.34;27.46
18821;BME280;9539;59.332;18.034;2023-02-12T07:54:11;102005.47;;;21.49;28.04
18821;BME280;9539;59.332;18.034;2023-02-12T07:56:35;102008.50;;;22.17;26.31
18821;BME280;9539;59.332;18.034;2023-02-12T07:58:59;102013.59;;;22.10;26.46
18821;BME280;9539;59.332;18.034;2023-02-12T08:01:27;102013.28;;;22.63;26.15
18821;BME280;9539;59.332;18.034;2023-02-12T08:03:49;102015.78;;;21.65;27.51
18821;BME280;9539;59.332;18.034;2023-02-12T08:06:14;102009.88;;;20.12;29.51
18821;BME280;9539;59.332;18.034;2023-02-12T08:08:37;102005.25;;;19.69;30.42
18821;BME280;9539;59.332;18.034;2023-02-12T08:10:59;101987.69;;;21.26;28.46
18821;BME280;9539;59.332;18.034;2023-02-12T08:13:21;101977.50;;;19.34;30.87
18821;BME280;9539;59.332;18.034;2023-02-12T08:15:43;101981.25;;;19.55;30.67
18821;BME280;9539;59.332;18.034;2023-02-12T08:18:06;101978.03;;;20.06;29.94
18821;BME280;9539;59.332;18.034;2023-02-12T08:20:28;101967.03;;;20.09;30.09
18821;BME280;9539;59.332;18.034;2023-02-12T08:22:50;101947.25;;;21.66;27.82
18821;BME280;9539;59.332;18.034;2023-02-12T08:25:13;101940.59;;;20.78;28.94
18821;BME280;9539;59.332;18.034;2023-02-12T08:27:35;101944.94;;;21.10;28.35
18821;BME280;9539;59.332;18.034;2023-02-12T08:29:57;101944.31;;;22.19;27.58
18821;BME280;9539;59.332;18.034;2023-02-12T08:32:19;101948.72;;;20.23;29.75
18821;BME280;9539;59.332;18.034;2023-02-12T08:37:08;101931.94;;;21.16;28.70
18821;BME280;9539;59.332;18.034;2023-02-12T08:39:30;101935.88;;;20.91;29.48
18821;BME280;9539;59.332;18.034;2023-02-12T08:41:53;101942.50;;;22.29;27.86
18821;BME280;9539;59.332;18.034;2023-02-12T08:44:16;101929.88;;;21.29;28.48
18821;BME280;9539;59.332;18.034;2023-02-12T08:46:39;101937.31;;;21.97;27.66
18821;BME280;9539;59.332;18.034;2023-02-12T08:49:03;101917.47;;;21.77;28.32
18821;BME280;9539;59.332;18.034;2023-02-12T08:51:28;101928.19;;;21.98;28.52
18821;BME280;9539;59.332;18.034;2023-02-12T08:53:54;101934.97;;;21.83;28.62
18821;BME280;9539;59.332;18.034;2023-02-12T08:56:17;101937.84;;;21.09;29.01
18821;BME280;9539;59.332;18.034;2023-02-12T08:58:39;101944.44;;;20.64;29.33
18821;BME280;9539;59.332;18.034;2023-02-12T09:01:02;101945.06;;;22.30;28.21
18821;BME280;9539;59.332;18.034;2023-02-12T09:03:24;101955.56;;;22.14;28.24
18821;BME280;9539;59.332;18.034;2023-02-12T09:05:46;101947.91;;;23.25;26.64
18821;BME280;9539;59.332;18.034;2023-02-12T09:08:08;101953.38;;;22.87;26.95
18821;BME280;9539;59.332;18.034;2023-02-12T09:10:31;101962.31;;;24.00;26.30
18821;BME280;9539;59.332;18.034;2023-02-12T09:12:53;101970.72;;;23.23;26.84
18821;BME280;9539;59.332;18.034;2023-02-12T09:15:15;101966.66;;;24.20;26.10
18821;BME280;9539;59.332;18.034;2023-02-12T09:17:37;101952.34;;;23.17;27.17
18821;BME280;9539;59.332;18.034;2023-02-12T09:20:01;101959.25;;;23.58;26.79
18821;BME280;9539;59.332;18.034;2023-02-12T09:22:23;101959.78;;;23.61;26.61
18821;BME280;9539;59.332;18.034;2023-02-12T09:24:45;101965.28;;;24.06;26.41
18821;BME280;9539;59.332;18.034;2023-02-12T09:27:08;101963.72;;;22.62;27.87
18821;BME280;9539;59.332;18.034;2023-02-12T09:29:31;101964.19;;;21.68;28.76
18821;BME280;9539;59.332;18.034;2023-02-12T09:31:53;101953.72;;;23.30;27.35
18821;BME280;9539;59.332;18.034;2023-02-12T09:34:15;101958.00;;;21.77;29.27
18821;BME280;9539;59.332;18.034;2023-02-12T09:36:36;101950.19;;;21.84;28.60
18821;BME280;9539;59.332;18.034;2023-02-12T09:38:59;101950.78;;;22.47;28.41
18821;BME280;9539;59.332;18.034;2023-02-12T09:41:59;101937.44;;;21.65;29.15
18821;BME280;9539;59.332;18.034;2023-02-12T09:44:35;101943.91;;;22.14;28.90
18821;BME280;9539;59.332;18.034;2023-02-12T09:47:05;101934.53;;;21.47;28.80
18821;BME280;9539;59.332;18.034;2023-02-12T09:49:44;101922.56;;;22.49;28.28
18821;BME280;9539;59.332;18.034;2023-02-12T09:52:13;101914.63;;;21.48;29.66
18821;BME280;9539;59.332;18.034;2023-02-12T09:54:38;101909.13;;;21.29;29.35
18821;BME280;9539;59.332;18.034;2023-02-12T09:57:00;101890.94;;;22.11;28.93
18821;BME280;9539;59.332;18.034;2023-02-12T09:59:32;101906.66;;;22.85;27.93
18821;BME280;9539;59.332;18.034;2023-02-12T10:01:56;101899.75;;;23.46;27.01
18821;BME280;9539;59.332;18.034;2023-02-12T10:04:19;101892.69;;;25.06;25.96
18821;BME280;9539;59.332;18.034;2023-02-12T10:06:46;101886.34;;;23.92;26.75
18821;BME280;9539;59.332;18.034;2023-02-12T10:09:33;101884.06;;;23.87;26.92
18821;BME280;9539;59.332;18.034;2023-02-12T10:12:03;101887.03;;;25.26;25.57
18821;BME280;9539;59.332;18.034;2023-02-12T10:15:05;101894.00;;;25.02;25.99
18821;BME280;9539;59.332;18.034;2023-02-12T10:17:37;101895.00;;;25.95;24.95
18821;BME280;9539;59.332;18.034;2023-02-12T10:20:21;101890.41;;;25.02;25.38
18821;BME280;9539;59.332;18.034;2023-02-12T10:23:02;101878.63;;;25.45;24.75
18821;BME280;9539;59.332;18.034;2023-02-12T10:25:34;101876.22;;;26.26;24.17
18821;BME280;9539;59.332;18.034;2023-02-12T10:28:00;101888.72;;;23.95;26.58
18821;BME280;9539;59.332;18.034;2023-02-12T10:30:33;101888.94;;;24.46;26.66
18821;BME280;9539;59.332;18.034;2023-02-12T10:33:00;101883.63;;;24.98;25.87
18821;BME280;9539;59.332;18.034;2023-02-12T10:35:24;101880.09;;;25.05;25.86
18821;BME280;9539;59.332;18.034;2023-02-12T10:37:50;101872.19;;;24.33;26.96
18821;BME280;9539;59.332;18.034;2023-02-12T10:40:17;101880.16;;;25.14;25.83
18821;BME280;9539;59.332;18.034;2023-02-12T10:42:42;101866.19;;;25.08;25.75
18821;BME280;9539;59.332;18.034;2023-02-12T10:45:08;101861.19;;;25.56;25.64
18821;BME280;9539;59.332;18.034;2023-02-12T10:47:35;101865.00;;;26.45;24.84
18821;BME280;9539;59.332;18.034;2023-02-12T10:49:58;101860.69;;;26.10;24.92
18821;BME280;9539;59.332;18.034;2023-02-12T10:52:29;101857.28;;;25.92;25.04
18821;BME280;9539;59.332;18.034;2023-02-12T10:54:54;101850.56;;;25.70;25.34
18821;BME280;9539;59.332;18.034;2023-02-12T10:57:19;101844.50;;;25.17;26.14
18821;BME280;9539;59.332;18.034;2023-02-12T10:59:43;101847.63;;;24.78;26.65
18821;BME280;9539;59.332;18.034;2023-02-12T11:02:20;101861.38;;;25.28;26.15
18821;BME280;9539;59.332;18.034;2023-02-12T11:04:43;101852.66;;;25.17;26.15
18821;BME280;9539;59.332;18.034;2023-02-12T11:07:06;101853.72;;;25.24;26.08
18821;BME280;9539;59.332;18.034;2023-02-12T11:09:33;101850.41;;;25.38;25.97
18821;BME280;9539;59.332;18.034;2023-02-12T11:11:55;101855.34;;;23.67;27.72
18821;BME280;9539;59.332;18.034;2023-02-12T11:14:19;101849.09;;;25.50;25.99
18821;BME280;9539;59.332;18.034;2023-02-12T11:16:45;101839.50;;;24.78;26.64
18821;BME280;9539;59.332;18.034;2023-02-12T11:19:19;101846.97;;;23.33;28.08
18821;BME280;9539;59.332;18.034;2023-02-12T11:21:43;101835.34;;;23.77;27.77
18821;BME280;9539;59.332;18.034;2023-02-12T11:24:28;101833.41;;;25.70;26.36
18821;BME280;9539;59.332;18.034;2023-02-12T11:26:51;101838.19;;;25.84;25.91
18821;BME280;9539;59.332;18.034;2023-02-12T11:29:18;101839.84;;;24.57;27.13
18821;BME280;9539;59.332;18.034;2023-02-12T11:31:40;101838.97;;;24.75;26.84
18821;BME280;9539;59.332;18.034;2023-02-12T11:34:13;101843.69;;;24.90;27.16
18821;BME280;9539;59.332;18.034;2023-02-12T11:36:36;101842.88;;;24.98;26.76
18821;BME280;9539;59.332;18.034;2023-02-12T11:39:01;101834.06;;;25.64;26.33
18821;BME280;9539;59.332;18.034;2023-02-12T11:41:29;101833.53;;;26.75;25.12
18821;BME280;9539;59.332;18.034;2023-02-12T11:43:54;101827.47;;;24.81;26.63
18821;BME280;9539;59.332;18.034;2023-02-12T11:46:19;101824.19;;;26.37;25.54
18821;BME280;9539;59.332;18.034;2023-02-12T11:48:44;101824.75;;;24.81;27.01
18821;BME280;9539;59.332;18.034;2023-02-12T11:51:08;101823.97;;;25.98;25.93
18821;BME280;9539;59.332;18.034;2023-02-12T11:53:41;101820.63;;;25.62;26.25
18821;BME280;9539;59.332;18.034;2023-02-12T11:56:07;101814.66;;;26.25;25.50
18821;BME280;9539;59.332;18.034;2023-02-12T11:58:29;101814.47;;;26.18;25.63
18821;BME280;9539;59.332;18.034;2023-02-12T12:00:55;101809.53;;;26.46;25.66
18821;BME280;9539;59.332;18.034;2023-02-12T12:03:25;101808.69;;;26.70;25.28
18821;BME280;9539;59.332;18.034;2023-02-12T12:05:51;101799.38;;;25.24;26.79
18821;BME280;9539;59.332;18.034;2023-02-12T12:08:18;101800.47;;;25.73;26.47
18821;BME280;9539;59.332;18.034;2023-02-12T12:10:46;101796.41;;;24.57;27.53
18821;BME280;9539;59.332;18.034;2023-02-12T12:13:13;101802.38;;;25.55;26.34
18821;BME280;9539;59.332;18.034;2023-02-12T12:15:40;101798.78;;;26.12;25.84
18821;BME280;9539;59.332;18.034;2023-02-12T12:18:25;101809.06;;;24.23;28.13
18821;BME280;9539;59.332;18.034;2023-02-12T12:21:12;101796.91;;;26.13;26.21
18821;BME280;9539;59.332;18.034;2023-02-12T12:23:40;101805.16;;;25.21;27.12
18821;BME280;9539;59.332;18.034;2023-02-12T12:26:07;101795.25;;;25.45;26.69
18821;BME280;9539;59.332;18.034;2023-02-12T12:28:36;101808.41;;;25.74;26.27
18821;BME280;9539;59.332;18.034;2023-02-12T12:31:06;101802.75;;;26.26;26.13
18821;BME280;9539;59.332;18.034;2023-02-12T12:33:36;101803.72;;;26.01;26.29
18821;BME280;9539;59.332;18.034;2023-02-12T12:36:13;101809.94;;;25.69;26.97
18821;BME280;9539;59.332;18.034;2023-02-12T12:38:44;101808.88;;;25.20;26.90
18821;BME280;9539;59.332;18.034;2023-02-12T12:41:15;101805.78;;;26.15;25.92
18821;BME280;9539;59.332;18.034;2023-02-12T12:43:50;101807.84;;;26.70;25.63